Tiempo atmosférico en la estación meteorológica de Machichaco, Bizkaia (93 m.)



Fecha
DESCASC
Temp. máxima en grados centígrados (hora)
DESCASC
Temp. mínima en grados centígrados (hora)
DESCASC
Temp. media en grados centígrados
DESCASC
Racha de viento máxima en m/sg (hora)
DESCASC
Velocidad máxima media en intervalos de 10 minutos(hora)
DESCASC
Precipitaciones diarias en mm
DESCASC
Precipitaciones de 00:00 a 06:00 en mm
DESCASC
Precipitaciones de 06:00 a 12:00 en mm
DESCASC
Precipitaciones de 12:00 a 18:00 en mm
DESCASC
Precipitaciones de 18:00 a 24:00 en mm
DESCASC
05-04-2020 24.4 (16:10) 14.5 (08:50) 19.4 17.5 (12:50) 9.72 (12:50) 1.4 0 0 0 1.4
04-04-2020 23.3 (17:50) 7.5 (07:40) 15.4 9.72 (14:00) 6.11 (00:10) 0 0 0 0 0
03-04-2020 13.2 (12:40) 7 (07:50) 10.1 10 (20:10) 7.78 (16:40) 0 0 0 0 0
02-04-2020 14.2 (14:20) 10 (00:00) 12.1 8.89 (08:10) 6.67 (08:00) 0.2 0 0.2 0 0
01-04-2020 14.3 (13:40) 8.5 (00:00) 11.4 8.33 (07:00) 5.28 (03:50) 0 0 0 0 0
31-03-2020 9.1 (23:40) 2.6 (00:00) 5.9 18.06 (11:50) 14.72 (11:50) 1.8 0 0 1.2 0.6
30-03-2020 7.7 (00:00) 2.8 (00:00) 5.2 15.28 (07:50) 11.11 (07:50) 9 2.4 2 4.4 0.2
29-03-2020 12.2 (13:30) 7.7 (00:00) 9.9 13.33 (23:50) 9.72 (23:40) 0.4 0 0 0.4 0
28-03-2020 14.1 (14:00) 8.2 (00:00) 11.2 5.28 (16:00) 4.44 (16:10) 0 0 0 0 0
27-03-2020 12.9 (13:10) 6.1 (00:00) 9.5 9.72 (20:00) 7.5 (18:00) 0 0 0 0 0
26-03-2020 11.8 (13:10) 7.9 (00:00) 9.9 17.22 (03:00) 14.44 (03:00) 0 0 0 0 0
25-03-2020 12.7 (12:10) 9.6 (00:00) 11.2 14.44 (23:00) 11.67 (23:00) 0 0 0 0 0
24-03-2020 16.7 (09:40) 11 (00:00) 13.9 6.94 (09:50) 5 (16:00) 0 0 0 0 0
23-03-2020 14.4 (13:50) 10.6 (00:00) 12.5 11.39 (20:40) 8.61 (19:30) 0 0 0 0 0
22-03-2020 13.7 (15:00) 10.7 (04:30) 12.2 11.11 (13:10) 9.17 (13:20) 0 0 0 0 0
21-03-2020 17.5 (10:40) 11.5 (00:00) 14.5 12.5 (07:20) 7.5 (07:20) 0 0 0 0 0
20-03-2020 20.4 (15:50) 13.2 (00:00) 16.8 9.72 (03:00) 5.28 (03:10) 0 0 0 0 0
19-03-2020 14.9 (20:40) 10.3 (00:00) 12.6 8.06 (15:20) 5.56 (15:00) 0 0 0 0 0
18-03-2020 16 (13:10) 9.8 (00:00) 12.9 6.67 (01:00) 5 (01:20) 0 0 0 0 0
17-03-2020 13.1 (15:20) 10.8 (00:00) 12 7.5 (21:50) 5 (18:30) 0 0 0 0 0
16-03-2020 10.9 (22:10) 7.9 (00:00) 9.4 19.17 (05:50) 14.44 (05:40) 36.4 11 14.4 11 0
15-03-2020 17.6 (09:40) 8.3 (00:00) 13 26.94 (21:10) 22.78 (21:20) 18 0 0 0 18
14-03-2020 13.6 (14:20) 6.6 (00:00) 10.1 7.78 (19:00) 5.28 (19:20) 0 0 0 0 0
13-03-2020 12.2 (14:00) 7.5 (21:40) 9.8 10.56 (09:30) 8.33 (09:30) 0 0 0 0 0
12-03-2020 14.5 (13:40) 10.2 (00:00) 12.3 7.22 (21:30) 5.28 (23:30) 1.6 0 0 0.2 1.4
11-03-2020 14.6 (10:30) 10.1 (00:00) 12.4 10 (16:10) 6.94 (14:40) 0 0 0 0 0
10-03-2020 13.9 (12:30) 9.3 (00:00) 11.6 7.22 (01:00) 4.17 (13:30) 0 0 0 0 0

Gráficas

Temp. máximas Temp. mínimas Temp. medias Precipitaciones Rachas de viento máximas Velocidades máximas media en intervalos de 10 minutos

Datos horarios

Fecha y hora oficial Temperatura (ºC) Velocidad del viento (km/h) Dirección del viento Racha (km/h) Dirección de racha Precipitación (mm) Presión (hPa) Tendencia (hPa) Humedad (%)
2020-04-08 23:00:00 14.2 6 Sudeste 17 Sudeste 0 -- -- 80
2020-04-08 22:00:00 13.6 11 Sudeste 21 Sudeste 0 -- -- 86
2020-04-08 21:00:00 14.2 16 Sudeste 25 Sudeste 0 -- -- 87
2020-04-08 20:00:00 15.9 17 Sudeste 26 Sudeste 0 -- -- 71
2020-04-08 19:00:00 16.3 17 Sudeste 28 Este 0 -- -- 72
2020-04-08 18:00:00 15.3 18 Sudeste 24 Este 0 -- -- 81
2020-04-08 17:00:00 15 15 Este 24 Sudeste 0 -- -- 90
2020-04-08 16:00:00 15.8 15 Este 27 Este 0 -- -- 86
2020-04-08 15:00:00 16.8 16 Sudeste 31 Este 0 -- -- 80
2020-04-08 14:00:00 17 17 Sudeste 26 Este 0 -- -- 74
2020-04-08 13:00:00 16.3 13 Sudeste 20 Sudeste 0 -- -- 82
2020-04-08 12:00:00 13.2 10 Este 14 Este 0 -- -- 99
2020-04-08 11:00:00 12.6 8 Este 14 Este 0 -- -- 99
2020-04-08 10:00:00 12.3 3 Noroeste 15 Oeste 0 -- -- 99
2020-04-08 09:00:00 11.9 7 Sudoeste 11 Sudoeste 0 -- -- 100
2020-04-08 08:00:00 11.3 5 Sudoeste 17 Sudeste 0 -- -- 100
2020-04-08 07:00:00 11.7 12 Sudeste 17 Sudeste 0 -- -- 100
2020-04-08 06:00:00 11.6 4 Sudoeste 13 Sudoeste 0 -- -- 99
2020-04-08 05:00:00 11.4 10 Sudoeste 17 Oeste 0 -- -- 99
2020-04-08 04:00:00 11.7 11 Oeste 18 Oeste 0 -- -- 98
2020-04-08 03:00:00 13 6 Sudoeste 18 Sudoeste 0 -- -- 94
2020-04-08 02:00:00 12.5 5 Sudoeste 21 Oeste 0 -- -- 97
2020-04-08 01:00:00 12.6 14 Oeste 26 Oeste 0 -- -- 96
2020-04-08 00:00:00 14.2 11 Oeste 24 Oeste 0 -- -- 85
2020-04-07 23:00:00 14.5 4 Nordeste 13 Sudeste 0 -- -- 84
2020-04-07 22:00:00 14.2 7 Sudeste 19 Oeste 0 -- -- 88
2020-04-07 21:00:00 14.1 14 Oeste 23 Oeste 0 -- -- 90
2020-04-07 20:00:00 15.1 13 Sudoeste 17 Sudoeste 0 -- -- 85
2020-04-07 19:00:00 17.4 8 Sudeste 26 Sudeste 0 -- -- 73
2020-04-07 18:00:00 17 16 Sudeste 27 Este 0 -- -- 74
2020-04-07 17:00:00 17.2 15 Sudeste 23 Este 0 -- -- 74
2020-04-07 16:00:00 17.9 13 Sudeste 24 Sudeste 0 -- -- 69
2020-04-07 15:00:00 17.4 13 Este 22 Este 0 -- -- 72
2020-04-07 14:00:00 16.3 12 Este 19 Este 0 -- -- 84
2020-04-07 13:00:00 16 13 Sudeste 20 Este 0 -- -- 86
2020-04-07 12:00:00 14.5 11 Sudeste 16 Este 0 -- -- 92
2020-04-07 11:00:00 13.6 5 Este 13 Sudeste 0 -- -- 97
2020-04-07 10:00:00 12.4 10 Este 17 Sudeste 0 -- -- 98
2020-04-07 09:00:00 11.5 16 Este 22 Este 0 -- -- 99
2020-04-07 08:00:00 11.4 14 Sudeste 21 Sudeste 0 -- -- 99
2020-04-07 07:00:00 11.3 15 Este 21 Este 0 -- -- 99
2020-04-07 06:00:00 11.2 10 Este 18 Este 0 -- -- 99
2020-04-07 05:00:00 11.1 12 Sudeste 18 Sudeste 0 -- -- 99
2020-04-07 04:00:00 11.2 10 Sudeste 16 Este 0.2 -- -- 98
2020-04-07 03:00:00 11.3 4 Este 7 Este 0 -- -- 98
2020-04-07 02:00:00 11.3 0 Calma 6 Sudoeste 0.2 -- -- 98
2020-04-07 01:00:00 11.4 3 Sudoeste 5 Oeste 0 -- -- 97
2020-04-07 00:00:00 11.3 3 Sudeste 6 Sudeste 0.2 -- -- 97
2020-04-06 23:00:00 11.3 2 Sur 10 Oeste 0 -- -- 97
2020-04-06 22:00:00 11.4 8 Oeste 11 Oeste 0.4 -- -- 96
2020-04-06 21:00:00 11.4 6 Oeste 11 Oeste 0 -- -- 96
2020-04-06 20:00:00 11.2 3 Noroeste 13 Oeste 0 -- -- 98
2020-04-06 19:00:00 11.2 11 Oeste 22 Oeste 0.2 -- -- 98
2020-04-06 18:00:00 11.4 11 Oeste 21 Noroeste 0 -- -- 99
2020-04-06 17:00:00 11.2 17 Oeste 32 Oeste 0 -- -- 99
2020-04-06 16:00:00 11.5 17 Oeste 39 Oeste 0.2 -- -- 99
2020-04-06 15:00:00 11.7 29 Noroeste 39 Noroeste 1.2 -- -- 98
2020-04-06 14:00:00 11.8 24 Oeste 33 Oeste 0.8 -- -- 98
2020-04-06 13:00:00 12.2 18 Oeste 22 Oeste 0.2 -- -- 96
2020-04-06 12:00:00 12.9 7 Oeste 13 Sudoeste 0.4 -- -- 89
2020-04-06 11:00:00 12.6 2 Este 15 Sudoeste 0.8 -- -- 88
2020-04-06 10:00:00 13 10 Sur 22 Sur 0.6 -- -- 83
2020-04-06 09:00:00 13.6 2 Este 9 Sur 0.4 -- -- 88
2020-04-06 08:00:00 13.8 9 Sur 20 Sudoeste 0.4 -- -- 87
2020-04-06 07:00:00 14 14 Oeste 24 Oeste 0 -- -- 86
2020-04-06 06:00:00 14.5 13 Oeste 32 Oeste 0 -- -- 82
2020-04-06 05:00:00 15.4 7 Sur 21 Sur 0 -- -- 69
2020-04-06 04:00:00 15 9 Sudeste 26 Sur 0.2 -- -- 75
2020-04-06 03:00:00 14.5 10 Sudeste 16 Sudeste 0 -- -- 79
2020-04-06 02:00:00 14.6 7 Este 12 Este 0 -- -- 78
2020-04-06 01:00:00 14.4 7 Sudeste 19 Este 0 -- -- 80
2020-04-06 00:00:00 15.5 11 Sudeste 30 Sur 0.4 -- -- 72
2020-04-05 23:00:00 15.8 11 Sudeste 28 Sur 1 -- -- 73
2020-04-05 22:00:00 19.2 10 Sur 26 Sur 0 -- -- 49
2020-04-05 21:00:00 19.4 12 Sudeste 23 Sudeste 0 -- -- 49
2020-04-05 20:00:00 20.3 9 Sudeste 22 Sur 0 -- -- 47
2020-04-05 19:00:00 22.9 6 Sur 26 Sudoeste 0 -- -- 42
2020-04-05 18:00:00 22.3 15 Sur 30 Sudeste 0 -- -- 42
2020-04-05 17:00:00 23.1 13 Sur 35 Sudeste 0 -- -- 41
2020-04-05 16:00:00 24.2 10 Sudoeste 37 Sur 0 -- -- 40
2020-04-05 15:00:00 24.2 13 Sur 50 Sur 0 -- -- 38
2020-04-05 14:00:00 22.4 27 Sur 53 Sur 0 -- -- 40
2020-04-05 13:00:00 20.9 30 Sur 63 Sur 0 -- -- 43
2020-04-05 12:00:00 19 33 Sur 62 Sur 0 -- -- 45
2020-04-05 11:00:00 18 32 Sur 53 Sur 0 -- -- 48
2020-04-05 10:00:00 16.2 23 Sur 53 Sur 0 -- -- 52
2020-04-05 09:00:00 14.5 17 Sudeste 39 Este 0 -- -- 56
2020-04-05 08:00:00 15 20 Sudeste 37 Sudeste 0 -- -- 53
2020-04-05 07:00:00 14.8 15 Sudeste 35 Sudeste 0 -- -- 54
2020-04-05 06:00:00 15.8 22 Sur 45 Sur 0 -- -- 50
2020-04-05 05:00:00 15.6 14 Sudeste 34 Sudeste 0 -- -- 52
2020-04-05 04:00:00 16 14 Sudeste 33 Sudeste 0 -- -- 52
2020-04-05 03:00:00 16 17 Este 27 Este 0 -- -- 53
2020-04-05 02:00:00 16.2 15 Este 27 Este 0 -- -- 52
2020-04-05 01:00:00 16.9 17 Este 31 Este 0 -- -- 50
2020-04-05 00:00:00 17.1 10 Sudeste 27 Este 0 -- -- 48
2020-04-04 23:00:00 17.2 12 Sudeste 24 Este 0 -- -- 48
2020-04-04 22:00:00 17.4 11 Sudeste 23 Este 0 -- -- 46
2020-04-04 21:00:00 18.6 6 Sur 19 Sur 0 -- -- 38
2020-04-04 20:00:00 18.6 11 Sudeste 22 Sudeste 0 -- -- 44
2020-04-04 19:00:00 20.8 9 Sudeste 27 Sudeste 0 -- -- 36
2020-04-04 18:00:00 22.9 14 Sudeste 32 Este 0 -- -- 26
2020-04-04 17:00:00 23 15 Sudeste 32 Este 0 -- -- 26
2020-04-04 16:00:00 21.9 16 Este 33 Este 0 -- -- 28
2020-04-04 15:00:00 20.9 14 Este 27 Este 0 -- -- 33
2020-04-04 14:00:00 19.2 17 Este 35 Este 0 -- -- 43
2020-04-04 13:00:00 18.4 15 Este 24 Este 0 -- -- 41
2020-04-04 12:00:00 17.9 9 Este 24 Sudeste 0 -- -- 46
2020-04-04 11:00:00 16.4 12 Este 27 Este 0 -- -- 48
2020-04-04 10:00:00 15.2 7 Sudeste 23 Sudeste 0 -- -- 50
2020-04-04 09:00:00 12.2 13 Sudeste 26 Sudeste 0 -- -- 56
2020-04-04 08:00:00 8.7 14 Sudeste 26 Este 0 -- -- 69
2020-04-04 07:00:00 8.8 16 Sudeste 25 Sudeste 0 -- -- 67
2020-04-04 06:00:00 9.1 18 Sudeste 27 Sudeste 0 -- -- 65
2020-04-04 05:00:00 8.5 14 Sudeste 23 Sudeste 0 -- -- 73
2020-04-04 04:00:00 9.9 15 Sudeste 27 Sudeste 0 -- -- 61
2020-04-04 03:00:00 9.5 15 Sudeste 27 Sudeste 0 -- -- 63
2020-04-04 02:00:00 9.1 18 Sudeste 28 Sudeste 0 -- -- 72
2020-04-04 01:00:00 9.3 21 Sudeste 34 Este 0 -- -- 73
2020-04-04 00:00:00 9.3 23 Sudeste 34 Sudeste 0 -- -- 74
2020-04-03 23:00:00 9.4 21 Este 34 Sudeste 0 -- -- 71
2020-04-03 22:00:00 9.4 19 Sudeste 30 Este 0 -- -- 70
2020-04-03 21:00:00 9.8 23 Este 36 Este 0 -- -- 71
2020-04-03 20:00:00 10.2 26 Este 33 Este 0 -- -- 69
2020-04-03 19:00:00 10.8 27 Este 32 Este 0 -- -- 66
2020-04-03 18:00:00 11.2 24 Este 32 Este 0 -- -- 69
2020-04-03 17:00:00 11.7 24 Este 33 Este 0 -- -- 67
2020-04-03 16:00:00 12 23 Este 29 Este 0 -- -- 64
2020-04-03 15:00:00 12.7 18 Nordeste 23 Este 0 -- -- 63
2020-04-03 14:00:00 13 8 Nordeste 13 Nordeste 0 -- -- 57
2020-04-03 13:00:00 13.2 4 Norte 8 Nordeste 0 -- -- 61
2020-04-03 12:00:00 12.7 4 Noroeste 8 Noroeste 0 -- -- 63
2020-04-03 11:00:00 12.2 4 Sudoeste 6 Sudoeste 0 -- -- 59
2020-04-03 10:00:00 11.2 2 Oeste 5 Oeste 0 -- -- 59
2020-04-03 09:00:00 9.8 3 Oeste 8 Oeste 0 -- -- 65
2020-04-03 08:00:00 7.2 7 Oeste 9 Sudoeste 0 -- -- 72
2020-04-03 07:00:00 7.8 5 Oeste 12 Oeste 0 -- -- 69
2020-04-03 06:00:00 8.1 9 Oeste 14 Oeste 0 -- -- 70
2020-04-03 05:00:00 8.1 9 Oeste 22 Sudoeste 0 -- -- 71
2020-04-03 04:00:00 8.7 12 Oeste 20 Noroeste 0 -- -- 70
2020-04-03 03:00:00 9.5 14 Oeste 23 Oeste 0 -- -- 67
2020-04-03 02:00:00 9.7 18 Noroeste 28 Noroeste 0 -- -- 66
2020-04-03 01:00:00 9.9 19 Noroeste 29 Noroeste 0 -- -- 69
2020-04-03 00:00:00 10.1 21 Noroeste 30 Noroeste 0 -- -- 65
2020-04-02 23:00:00 10.1 20 Noroeste 28 Noroeste 0 -- -- 63
2020-04-02 22:00:00 10.2 18 Noroeste 28 Noroeste 0 -- -- 63
2020-04-02 21:00:00 10.5 20 Noroeste 28 Noroeste 0 -- -- 66
2020-04-02 20:00:00 10.9 20 Noroeste 27 Oeste 0 -- -- 70
2020-04-02 19:00:00 11.8 20 Noroeste 25 Noroeste 0 -- -- 72
2020-04-02 18:00:00 11.8 18 Noroeste 22 Noroeste 0 -- -- 73
2020-04-02 17:00:00 12.4 16 Noroeste 20 Noroeste 0 -- -- 74
2020-04-02 16:00:00 13.2 13 Noroeste 18 Noroeste 0 -- -- 75
2020-04-02 15:00:00 13.2 13 Noroeste 18 Noroeste 0 -- -- 80
2020-04-02 14:00:00 13.9 6 Norte 12 Noroeste 0 -- -- 80
2020-04-02 13:00:00 13.1 5 Noroeste 9 Noroeste 0 -- -- 84
2020-04-02 12:00:00 13 5 Noroeste 8 Noroeste 0 -- -- 91
2020-04-02 11:00:00 12.2 5 Noroeste 9 Noroeste 0 -- -- 98
2020-04-02 10:00:00 11.7 6 Noroeste 22 Oeste 0.2 -- -- 98
2020-04-02 09:00:00 11.6 18 Oeste 32 Oeste 0 -- -- 97
2020-04-02 08:00:00 11.5 24 Oeste 31 Oeste 0 -- -- 97
2020-04-02 07:00:00 11.7 20 Oeste 30 Sudoeste 0 -- -- 96
2020-04-02 06:00:00 11.6 22 Oeste 31 Oeste 0 -- -- 92
2020-04-02 05:00:00 11.6 22 Oeste 30 Oeste 0 -- -- 86
2020-04-02 04:00:00 11 8 Oeste 17 Oeste 0 -- -- 82
2020-04-02 03:00:00 11.8 5 Sudoeste 18 Oeste 0 -- -- 80
2020-04-02 02:00:00 11.4 11 Oeste 15 Oeste 0 -- -- 83
2020-04-02 01:00:00 11.1 4 Sudeste 11 Este 0 -- -- 86
2020-04-02 00:00:00 12.2 5 Sudeste 15 Sur 0 -- -- 78
2020-04-01 23:00:00 12.5 9 Sudeste 18 Sudeste 0 -- -- 78
2020-04-01 22:00:00 12.5 10 Sudeste 18 Sudeste 0 -- -- 81
2020-04-01 21:00:00 12 9 Sudeste 23 Sudeste 0 -- -- 86
2020-04-01 20:00:00 12.2 10 Sudeste 24 Este 0 -- -- 85
2020-04-01 19:00:00 12.7 15 Sudeste 23 Sudeste 0 -- -- 79
2020-04-01 18:00:00 13 9 Sudeste 23 Este 0 -- -- 85
2020-04-01 17:00:00 13.3 12 Sudeste 19 Este 0 -- -- 83
2020-04-01 16:00:00 14 13 Este 19 Este 0 -- -- 81
2020-04-01 15:00:00 13.6 13 Este 19 Este 0 -- -- 82
2020-04-01 14:00:00 13.9 13 Este 20 Este 0 -- -- 77
2020-04-01 13:00:00 13.8 10 Este 19 Este 0 -- -- 75
2020-04-01 12:00:00 13.3 10 Este 22 Este 0 -- -- 76
2020-04-01 11:00:00 11.8 12 Este 21 Este 0 -- -- 86
2020-04-01 10:00:00 10.5 12 Este 20 Este 0 -- -- 86
2020-04-01 09:00:00 10 12 Este 24 Este 0 -- -- 86
2020-04-01 08:00:00 9.7 14 Este 30 Este 0 -- -- 86
2020-04-01 07:00:00 9.6 17 Sudeste 30 Este 0 -- -- 89
2020-04-01 06:00:00 9.1 10 Este 20 Este 0 -- -- 89
2020-04-01 05:00:00 9.1 13 Este 23 Este 0 -- -- 90
2020-04-01 04:00:00 9.5 14 Este 27 Este 0 -- -- 88
2020-04-01 03:00:00 9.4 13 Sudeste 21 Este 0 -- -- 82
2020-04-01 02:00:00 8.8 12 Sudeste 21 Este 0 -- -- 85
2020-04-01 01:00:00 8.5 10 Este 20 Sudeste 0 -- -- 86
2020-04-01 00:00:00 8.9 12 Sudeste 37 Este 0 -- -- 83
2020-03-31 23:00:00 8.9 23 Este 35 Sudeste 0 -- -- 81
2020-03-31 22:00:00 8.4 25 Este 39 Este 0 -- -- 83
2020-03-31 21:00:00 7.7 23 Sudeste 38 Este 0 -- -- 85
2020-03-31 20:00:00 7.1 22 Este 36 Este 0.4 -- -- 89
2020-03-31 19:00:00 7.3 19 Este 35 Este 0.2 -- -- 88
2020-03-31 18:00:00 7.1 19 Este 36 Este 0.2 -- -- 90
2020-03-31 17:00:00 6.7 23 Este 39 Este 0.2 -- -- 91
2020-03-31 16:00:00 6.4 24 Este 39 Sudeste 0.6 -- -- 91
2020-03-31 15:00:00 6.4 28 Este 44 Este 0 -- -- 89
2020-03-31 14:00:00 6.6 33 Este 57 Este 0.2 -- -- 87
2020-03-31 13:00:00 6.3 48 Este 63 Este 0 -- -- 82
2020-03-31 12:00:00 6.3 52 Este 65 Este 0 -- -- 82
2020-03-31 11:00:00 6 46 Este 61 Este 0 -- -- 81
2020-03-31 10:00:00 5.6 46 Este 59 Este 0 -- -- 87
2020-03-31 09:00:00 5 33 Este 52 Este 0 -- -- 90
2020-03-31 08:00:00 4.3 16 Sudeste 28 Sudeste 0 -- -- 85
2020-03-31 07:00:00 4.4 12 Sudeste 21 Sudeste 0 -- -- 80
2020-03-31 06:00:00 4 9 Sudeste 15 Este 0 -- -- 80
2020-03-31 05:00:00 3.4 7 Sudeste 13 Este 0 -- -- 85
2020-03-31 04:00:00 2.9 6 Sudeste 8 Sudeste 0 -- -- 89
2020-03-31 03:00:00 3 3 Sudoeste 8 Sudeste 0 -- -- 87
2020-03-31 02:00:00 3.1 3 Sudoeste 6 Sudoeste 0 -- -- 85
2020-03-31 01:00:00 4.1 2 Sudoeste 5 Sudoeste 0 -- -- 85
2020-03-31 00:00:00 4.4 4 Sudeste 12 Sur 0 -- -- 86
2020-03-30 23:00:00 4.6 3 Norte 9 Noroeste 0 -- -- 83
2020-03-30 22:00:00 4.6 3 Nordeste 32 Nordeste 0 -- -- 84
2020-03-30 21:00:00 5.4 5 Noroeste 17 Nordeste 0 -- -- 77
2020-03-30 20:00:00 5.6 5 Norte 15 Nordeste 0 -- -- 76
2020-03-30 19:00:00 5.7 6 Norte 23 Nordeste 0.2 -- -- 77
2020-03-30 18:00:00 5.5 9 Norte 32 Nordeste 0 -- -- 83
2020-03-30 17:00:00 4.8 4 Este 16 Noroeste 1.2 -- -- 89
2020-03-30 16:00:00 2.8 9 Sudoeste 38 Noroeste 2.4 -- -- 92
2020-03-30 15:00:00 5.4 7 Nordeste 39 Oeste 0.2 -- -- 83
2020-03-30 14:00:00 7.2 6 Oeste 33 Nordeste 0.4 -- -- 73
2020-03-30 13:00:00 6.4 8 Sudoeste 27 Norte 0.2 -- -- 79
2020-03-30 12:00:00 5.4 15 Norte 41 Nordeste 0 -- -- 80
2020-03-30 11:00:00 5.8 33 Nordeste 43 Nordeste 0 -- -- 79
2020-03-30 10:00:00 4.6 11 Norte 37 Noroeste 1.4 -- -- 87
2020-03-30 09:00:00 5.5 21 Nordeste 35 Nordeste 0.2 -- -- 72
2020-03-30 08:00:00 3.3 22 Norte 55 Nordeste 0.2 -- -- 87
2020-03-30 07:00:00 4.3 18 Noroeste 40 Nordeste 0.2 -- -- 83
2020-03-30 06:00:00 4.3 9 Oeste 44 Nordeste 1.8 -- -- 73
2020-03-30 05:00:00 7.2 25 Nordeste 50 Nordeste 0 -- -- 56
2020-03-30 04:00:00 6.5 17 Nordeste 36 Nordeste 0 -- -- 68
2020-03-30 03:00:00 6 10 Sudeste 27 Este 0.2 -- -- 79
2020-03-30 02:00:00 6 20 Este 40 Este 0.2 -- -- 82
2020-03-30 01:00:00 6.7 30 Este 43 Nordeste 0.2 -- -- 81
2020-03-30 00:00:00 7.7 31 Nordeste 48 Este 0 -- -- 73
2020-03-29 23:00:00 8 31 Nordeste 43 Nordeste 0 -- -- 71
2020-03-29 22:00:00 7.9 32 Nordeste 41 Nordeste 0 -- -- 74
2020-03-29 21:00:00 8.3 18 Norte 33 Nordeste 0 -- -- 75
2020-03-29 20:00:00 8.7 16 Norte 32 Nordeste 0 -- -- 78
2020-03-29 19:00:00 9.2 13 Norte 28 Norte 0 -- -- 81
2020-03-29 18:00:00 9.6 8 Norte 22 Noroeste 0 -- -- 81
2020-03-29 17:00:00 9.8 7 Norte 23 Norte 0 -- -- 82
2020-03-29 16:00:00 10 9 Norte 33 Nordeste 0 -- -- 83
2020-03-29 15:00:00 9.9 21 Nordeste 36 Oeste 0.4 -- -- 89
2020-03-29 14:00:00 11.1 31 Oeste 39 Oeste 0 -- -- 83
2020-03-29 13:00:00 11.6 24 Oeste 33 Oeste 0 -- -- 82
2020-03-29 12:00:00 11.4 23 Oeste 31 Oeste 0 -- -- 81
2020-03-29 11:00:00 11.1 19 Oeste 25 Oeste 0 -- -- 80
2020-03-29 10:00:00 10.8 15 Oeste 21 Oeste 0 -- -- 79
2020-03-29 09:00:00 10 12 Oeste 19 Sudoeste 0 -- -- 82
2020-03-29 08:00:00 9 12 Sudoeste 17 Sudoeste 0 -- -- 85
2020-03-29 07:00:00 9.1 12 Sudoeste 17 Sudoeste 0 -- -- 85
2020-03-29 06:00:00 8.9 10 Sudoeste 13 Sudoeste 0 -- -- 86
2020-03-29 05:00:00 9.3 5 Oeste 7 Sudoeste 0 -- -- 82
2020-03-29 03:00:00 9.4 6 Oeste 8 Oeste 0 -- -- 75
2020-03-29 01:00:00 9.4 4 Oeste 5 Oeste 0 -- -- 76
2020-03-29 00:00:00 9.1 0 Calma 6 Este 0 -- -- 77
2020-03-28 23:00:00 9.3 6 Este 12 Este 0 -- -- 76
2020-03-28 22:00:00 9.8 8 Este 13 Este 0 -- -- 75
2020-03-28 21:00:00 10.5 9 Este 16 Nordeste 0 -- -- 72
2020-03-28 20:00:00 10.6 10 Este 17 Este 0 -- -- 72
2020-03-28 19:00:00 11.4 12 Este 17 Este 0 -- -- 71
2020-03-28 18:00:00 12.4 14 Este 17 Este 0 -- -- 68
2020-03-28 17:00:00 13.2 13 Este 19 Este 0 -- -- 67
2020-03-28 16:00:00 13.5 15 Este 19 Este 0 -- -- 66
2020-03-28 15:00:00 13.6 12 Este 17 Nordeste 0 -- -- 66
2020-03-28 14:00:00 14.1 9 Nordeste 13 Este 0 -- -- 68
2020-03-28 13:00:00 13.6 5 Norte 10 Nordeste 0 -- -- 74
2020-03-28 12:00:00 13.5 6 Nordeste 9 Nordeste 0 -- -- 72
2020-03-28 11:00:00 12.8 4 Noroeste 5 Noroeste 0 -- -- 68
2020-03-28 10:00:00 12.3 2 Noroeste 5 Oeste 0 -- -- 69
2020-03-28 09:00:00 12.1 2 Sudoeste 6 Sudoeste 0 -- -- 71
2020-03-28 08:00:00 9.6 3 Oeste 4 Sudoeste 0 -- -- 87
2020-03-28 07:00:00 8.8 0 Calma 6 Sudoeste 0 -- -- 83
2020-03-28 06:00:00 8.8 3 Sudoeste 4 Sudoeste 0 -- -- 87
2020-03-28 05:00:00 8.7 2 Oeste 3 Oeste 0 -- -- 89
2020-03-28 04:00:00 8.6 0 Calma 8 Sudeste 0 -- -- 82
2020-03-28 03:00:00 9.3 6 Sudeste 11 Sudeste 0 -- -- 75
2020-03-28 02:00:00 9.6 7 Sudeste 13 Sudeste 0 -- -- 73
2020-03-28 01:00:00 9.6 8 Sudeste 16 Sudeste 0 -- -- 74
2020-03-28 00:00:00 9.7 10 Sudeste 18 Sudeste 0 -- -- 74
2020-03-27 23:00:00 9.7 10 Sudeste 21 Sudeste 0 -- -- 72
2020-03-27 22:00:00 9.8 11 Sudeste 27 Sudeste 0 -- -- 71
2020-03-27 21:00:00 10.2 20 Este 33 Este 0 -- -- 69
2020-03-27 20:00:00 10.3 23 Este 35 Este 0 -- -- 66
2020-03-27 19:00:00 10.4 23 Este 32 Este 0 -- -- 66
2020-03-27 18:00:00 10.9 27 Este 34 Este 0 -- -- 64
2020-03-27 17:00:00 11.1 24 Este 32 Este 0 -- -- 64
2020-03-27 16:00:00 12.3 10 Este 21 Nordeste 0 -- -- 62
2020-03-27 15:00:00 12.1 10 Nordeste 16 Nordeste 0 -- -- 64
2020-03-27 14:00:00 12 11 Nordeste 14 Nordeste 0 -- -- 65
2020-03-27 13:00:00 12.7 5 Norte 10 Norte 0 -- -- 63
2020-03-27 12:00:00 12.3 4 Noroeste 9 Noroeste 0 -- -- 63
2020-03-27 11:00:00 11.4 4 Noroeste 11 Oeste 0 -- -- 61
2020-03-27 10:00:00 10.9 5 Oeste 9 Oeste 0 -- -- 59
2020-03-27 09:00:00 10.1 4 Nordeste 6 Norte 0 -- -- 65
2020-03-27 08:00:00 8.6 4 Oeste 15 Sudoeste 0 -- -- 64
2020-03-27 07:00:00 7.4 11 Sudoeste 19 Sudoeste 0 -- -- 66
2020-03-27 06:00:00 7.4 13 Oeste 19 Oeste 0 -- -- 61
2020-03-27 05:00:00 7.2 13 Oeste 19 Sudoeste 0 -- -- 58
2020-03-27 04:00:00 7.3 14 Oeste 21 Sudoeste 0 -- -- 56
2020-03-27 03:00:00 7.3 12 Oeste 17 Sudoeste 0 -- -- 58
2020-03-27 02:00:00 6.7 10 Oeste 14 Oeste 0 -- -- 60
2020-03-27 01:00:00 6.9 0 Calma 8 Nordeste 0 -- -- 56
2020-03-27 00:00:00 7.9 2 Norte 20 Nordeste 0 -- -- 55
2020-03-26 23:00:00 8.7 6 Norte 20 Norte 0 -- -- 55
2020-03-26 22:00:00 8.8 10 Norte 18 Norte 0 -- -- 56
2020-03-26 21:00:00 8.9 8 Norte 17 Noroeste 0 -- -- 53
2020-03-26 20:00:00 8.7 9 Noroeste 22 Noroeste 0 -- -- 56
2020-03-26 19:00:00 8.9 16 Noroeste 29 Noroeste 0 -- -- 50
2020-03-26 18:00:00 10.1 23 Noroeste 33 Noroeste 0 -- -- 51
2020-03-26 17:00:00 10.9 19 Noroeste 32 Noroeste 0 -- -- 51
2020-03-26 16:00:00 11.4 18 Noroeste 37 Noroeste 0 -- -- 51
2020-03-26 15:00:00 11.3 25 Noroeste 32 Noroeste 0 -- -- 45
2020-03-26 14:00:00 11.3 22 Noroeste 31 Noroeste 0 -- -- 46
2020-03-26 13:00:00 11.7 12 Noroeste 24 Noroeste 0 -- -- 49
2020-03-26 12:00:00 11.2 13 Norte 26 Norte 0 -- -- 49
2020-03-26 11:00:00 11.2 14 Norte 31 Norte 0 -- -- 53
2020-03-26 10:00:00 11.3 17 Noroeste 37 Noroeste 0 -- -- 47
2020-03-26 09:00:00 10.9 24 Noroeste 54 Noroeste 0 -- -- 53
2020-03-26 08:00:00 10.5 44 Noroeste 53 Noroeste 0 -- -- 59
2020-03-26 07:00:00 10.6 38 Noroeste 49 Noroeste 0 -- -- 59
2020-03-26 06:00:00 10.9 28 Noroeste 46 Oeste 0 -- -- 65
2020-03-26 05:00:00 10.2 29 Oeste 59 Oeste 0 -- -- 76
2020-03-26 04:00:00 10.1 47 Oeste 61 Oeste 0 -- -- 80
2020-03-26 03:00:00 10.2 52 Oeste 62 Oeste 0 -- -- 78
2020-03-26 02:00:00 9.9 47 Oeste 61 Oeste 0 -- -- 76
2020-03-26 01:00:00 10 26 Oeste 52 Oeste 0 -- -- 78
2020-03-26 00:00:00 10.1 40 Oeste 52 Oeste 0 -- -- 71
2020-03-25 23:00:00 10.1 42 Oeste 52 Oeste 0 -- -- 69
2020-03-25 22:00:00 9.9 33 Oeste 43 Oeste 0 -- -- 71
2020-03-25 21:00:00 9.7 26 Oeste 33 Oeste 0 -- -- 67
2020-03-25 20:00:00 9.8 29 Oeste 37 Noroeste 0 -- -- 69
2020-03-25 19:00:00 10.2 27 Oeste 37 Oeste 0 -- -- 73
2020-03-25 18:00:00 10.8 24 Oeste 35 Noroeste 0 -- -- 68
2020-03-25 17:00:00 11.5 24 Noroeste 36 Oeste 0 -- -- 64
2020-03-25 16:00:00 11.9 28 Oeste 34 Oeste 0 -- -- 58
2020-03-25 15:00:00 11.9 23 Oeste 29 Oeste 0 -- -- 61
2020-03-25 14:00:00 12.1 21 Noroeste 26 Noroeste 0 -- -- 67
2020-03-25 13:00:00 12.2 17 Noroeste 23 Noroeste 0 -- -- 72
2020-03-25 12:00:00 12.4 16 Noroeste 38 Oeste 0 -- -- 84
2020-03-25 11:00:00 12.5 25 Oeste 39 Sudoeste 0 -- -- 86
2020-03-25 10:00:00 11.6 32 Oeste 42 Oeste 0 -- -- 89
2020-03-25 09:00:00 12.2 14 Oeste 25 Oeste 0 -- -- 83
2020-03-25 08:00:00 11.4 14 Oeste 26 Oeste 0 -- -- 87
2020-03-25 07:00:00 11 16 Oeste 25 Oeste 0 -- -- 91
2020-03-25 06:00:00 10.9 16 Oeste 22 Oeste 0 -- -- 89
2020-03-25 05:00:00 10.8 12 Oeste 20 Oeste 0 -- -- 91
2020-03-25 04:00:00 10.8 11 Oeste 19 Oeste 0 -- -- 91
2020-03-25 03:00:00 11.2 14 Oeste 20 Oeste 0 -- -- 90
2020-03-25 02:00:00 11.2 13 Oeste 18 Oeste 0 -- -- 89
2020-03-25 01:00:00 11.1 9 Oeste 15 Oeste 0 -- -- 87
2020-03-25 00:00:00 11.3 6 Sudoeste 9 Sudoeste 0 -- -- 85
2020-03-24 23:00:00 12 2 Sudeste 18 Sudeste 0 -- -- 81
2020-03-24 22:00:00 12.5 9 Sudeste 24 Este 0 -- -- 81
2020-03-24 21:00:00 12.5 12 Este 21 Sudeste 0 -- -- 80
2020-03-24 20:00:00 12.4 13 Sudeste 23 Sudeste 0 -- -- 79
2020-03-24 19:00:00 12.3 13 Sudeste 18 Sudeste 0 -- -- 91
2020-03-24 18:00:00 13.7 14 Este 17 Sudeste 0 -- -- 86
2020-03-24 17:00:00 14.4 14 Sudeste 21 Este 0 -- -- 82
2020-03-24 16:00:00 14.8 18 Este 22 Este 0 -- -- 83
2020-03-24 15:00:00 15.7 14 Este 22 Este 0 -- -- 82
2020-03-24 14:00:00 15.5 15 Este 22 Este 0 -- -- 84
2020-03-24 13:00:00 15.7 14 Este 21 Este 0 -- -- 79
2020-03-24 12:00:00 16.2 12 Este 17 Este 0 -- -- 68
2020-03-24 11:00:00 15.4 12 Este 19 Este 0 -- -- 76
2020-03-24 10:00:00 15.4 13 Este 25 Este 0 -- -- 73
2020-03-24 09:00:00 15.4 12 Sudeste 20 Sudeste 0 -- -- 68
2020-03-24 08:00:00 12.2 9 Sudeste 16 Este 0 -- -- 80
2020-03-24 07:00:00 11.8 9 Este 14 Este 0 -- -- 82
2020-03-24 06:00:00 11.8 7 Sudeste 17 Sudeste 0 -- -- 85
2020-03-24 05:00:00 11.3 10 Sudeste 18 Sudeste 0 -- -- 91
2020-03-24 04:00:00 11.3 11 Sudeste 19 Sudeste 0 -- -- 95
2020-03-24 03:00:00 11.4 9 Sudeste 17 Este 0 -- -- 94
2020-03-24 02:00:00 11.6 8 Sudeste 17 Este 0 -- -- 93
2020-03-24 01:00:00 11.6 13 Este 21 Este 0 -- -- 91
2020-03-24 00:00:00 11.7 12 Este 24 Sudeste 0 -- -- 86
2020-03-23 23:00:00 12.1 15 Este 28 Este 0 -- -- 88
2020-03-23 22:00:00 12.2 22 Este 38 Este 0 -- -- 93
2020-03-23 21:00:00 12.2 29 Este 41 Este 0 -- -- 93
2020-03-23 20:00:00 12.2 30 Este 37 Este 0 -- -- 92
2020-03-23 19:00:00 12.2 30 Este 36 Este 0 -- -- 89
2020-03-23 18:00:00 12.7 24 Este 35 Este 0 -- -- 86
2020-03-23 17:00:00 13.2 29 Este 35 Este 0 -- -- 83
2020-03-23 16:00:00 13.8 19 Este 23 Este 0 -- -- 78
2020-03-23 15:00:00 14.2 16 Este 22 Este 0 -- -- 77
2020-03-23 14:00:00 14.3 16 Este 22 Este 0 -- -- 77
2020-03-23 13:00:00 13.7 12 Este 18 Este 0 -- -- 80
2020-03-23 12:00:00 13.3 10 Este 13 Este 0 -- -- 82
2020-03-23 11:00:00 13.9 6 Nordeste 10 Nordeste 0 -- -- 80
2020-03-23 10:00:00 12.5 0 Calma 6 Sudeste 0 -- -- 85
2020-03-23 09:00:00 11.8 0 Calma 11 Oeste 0 -- -- 88
2020-03-23 08:00:00 11.2 6 Oeste 9 Oeste 0 -- -- 91
2020-03-23 07:00:00 10.6 4 Sudoeste 17 Oeste 0 -- -- 89
2020-03-23 06:00:00 11.1 9 Oeste 14 Oeste 0 -- -- 88
2020-03-23 05:00:00 11.1 5 Oeste 10 Sudoeste 0 -- -- 88
2020-03-23 04:00:00 11.4 7 Oeste 13 Oeste 0 -- -- 86
2020-03-23 03:00:00 11.4 10 Oeste 15 Noroeste 0 -- -- 87
2020-03-23 02:00:00 11.4 12 Noroeste 21 Noroeste 0 -- -- 90
2020-03-23 01:00:00 11.5 15 Noroeste 25 Noroeste 0 -- -- 93
2020-03-23 00:00:00 11.7 21 Noroeste 26 Oeste 0 -- -- 93
2020-03-22 23:00:00 11.5 12 Oeste 22 Oeste 0 -- -- 91
2020-03-22 22:00:00 11.8 12 Oeste 26 Noroeste 0 -- -- 91
2020-03-22 21:00:00 11.8 19 Noroeste 32 Oeste 0 -- -- 90
2020-03-22 20:00:00 12.4 24 Oeste 32 Oeste 0 -- -- 93
2020-03-22 19:00:00 12.2 29 Oeste 33 Oeste 0 -- -- 94
2020-03-22 18:00:00 12.6 27 Oeste 32 Oeste 0 -- -- 92
2020-03-22 17:00:00 13.5 25 Oeste 33 Oeste 0 -- -- 85
2020-03-22 16:00:00 13.6 28 Oeste 35 Oeste 0 -- -- 82
2020-03-22 15:00:00 13.7 28 Oeste 38 Oeste 0 -- -- 81
2020-03-22 14:00:00 13.3 32 Oeste 40 Oeste 0 -- -- 85
2020-03-22 13:00:00 13.2 31 Oeste 38 Oeste 0 -- -- 84
2020-03-22 12:00:00 13.3 29 Oeste 36 Oeste 0 -- -- 81
2020-03-22 11:00:00 13.3 21 Oeste 29 Oeste 0 -- -- 79
2020-03-22 10:00:00 12.9 17 Oeste 31 Oeste 0 -- -- 81
2020-03-22 09:00:00 11.5 21 Oeste 31 Oeste 0 -- -- 88
2020-03-22 08:00:00 11.1 23 Oeste 31 Oeste 0 -- -- 91
2020-03-22 07:00:00 10.7 22 Oeste 37 Sudoeste 0 -- -- 92
2020-03-22 06:00:00 10.7 24 Oeste 31 Oeste 0 -- -- 92
2020-03-22 05:00:00 10.7 21 Oeste 31 Sudoeste 0 -- -- 93
2020-03-22 04:00:00 10.8 23 Sudoeste 32 Sudoeste 0 -- -- 93
2020-03-22 03:00:00 10.9 24 Oeste 31 Sudoeste 0 -- -- 93
2020-03-22 02:00:00 11 23 Oeste 35 Sudoeste 0 -- -- 93
2020-03-22 01:00:00 11.1 24 Oeste 33 Sudoeste 0 -- -- 93
2020-03-22 00:00:00 11.5 19 Oeste 27 Sudoeste 0 -- -- 88
2020-03-21 23:00:00 12.4 17 Oeste 23 Oeste 0 -- -- 76
2020-03-21 22:00:00 13.8 10 Sudeste 22 Este 0 -- -- 68
2020-03-21 21:00:00 13.9 14 Sudeste 31 Sudeste 0 -- -- 68
2020-03-21 20:00:00 14.4 15 Sudeste 28 Este 0 -- -- 61
2020-03-21 19:00:00 14.2 16 Sudeste 28 Sudeste 0 -- -- 65
2020-03-21 18:00:00 14.8 15 Sudeste 28 Este 0 -- -- 65
2020-03-21 17:00:00 15.4 17 Sudeste 27 Sudeste 0 -- -- 63
2020-03-21 16:00:00 16 18 Sudeste 29 Sudeste 0 -- -- 58
2020-03-21 15:00:00 16.1 17 Este 27 Este 0 -- -- 63
2020-03-21 14:00:00 16.8 16 Este 22 Sudeste 0 -- -- 55
2020-03-21 13:00:00 16.6 13 Este 22 Nordeste 0 -- -- 55
2020-03-21 12:00:00 17 5 Nordeste 10 Este 0 -- -- 49
2020-03-21 11:00:00 17.3 3 Sudoeste 13 Sudeste 0 -- -- 48
2020-03-21 10:00:00 16.5 10 Este 21 Este 0 -- -- 47
2020-03-21 09:00:00 15.5 9 Este 35 Sur 0 -- -- 46
2020-03-21 08:00:00 15 19 Sur 45 Sudeste 0 -- -- 42
2020-03-21 07:00:00 15.1 18 Sur 41 Sur 0 -- -- 42
2020-03-21 06:00:00 14.8 17 Sudeste 38 Sudeste 0 -- -- 50
2020-03-21 05:00:00 14.6 7 Sur 22 Sudeste 0 -- -- 55
2020-03-21 04:00:00 14.1 7 Sudoeste 16 Noroeste 0 -- -- 59
2020-03-21 03:00:00 13.7 4 Sudeste 18 Sudeste 0 -- -- 63
2020-03-21 02:00:00 13.9 8 Sudeste 19 Sudeste 0 -- -- 63
2020-03-21 01:00:00 14.2 9 Sudeste 24 Sudeste 0 -- -- 63
2020-03-21 00:00:00 14.4 9 Sudeste 21 Este 0 -- -- 64
2020-03-20 23:00:00 14.9 13 Sudeste 26 Sudeste 0 -- -- 59
2020-03-20 22:00:00 14.6 12 Sudeste 22 Sudeste 0 -- -- 61
2020-03-20 21:00:00 15.7 13 Este 25 Sudeste 0 -- -- 55
2020-03-20 20:00:00 15.8 9 Sudeste 19 Este 0 -- -- 53
2020-03-20 19:00:00 16.4 5 Sudeste 13 Este 0 -- -- 51
2020-03-20 18:00:00 18.2 8 Sur 20 Sur 0 -- -- 45
2020-03-20 17:00:00 19.1 11 Sur 27 Sur 0 -- -- 39
2020-03-20 16:00:00 20.4 12 Sur 30 Sudeste 0 -- -- 34
2020-03-20 15:00:00 19.4 16 Sudeste 28 Sudeste 0 -- -- 35
2020-03-20 14:00:00 15.4 6 Nordeste 11 Nordeste 0 -- -- 65
2020-03-20 13:00:00 16.4 0 Calma 10 Este 0 -- -- 44
2020-03-20 12:00:00 16.3 5 Nordeste 7 Nordeste 0 -- -- 45
2020-03-20 11:00:00 16.1 4 Nordeste 8 Nordeste 0 -- -- 49
2020-03-20 10:00:00 14.8 3 Sudoeste 17 Sudeste 0 -- -- 44
2020-03-20 09:00:00 14.5 4 Sur 19 Sur 0 -- -- 43
2020-03-20 08:00:00 13.9 10 Sudeste 24 Sudeste 0 -- -- 44
2020-03-20 07:00:00 13.7 8 Sudeste 30 Este 0 -- -- 42
2020-03-20 06:00:00 14.6 16 Este 32 Este 0 -- -- 40
2020-03-20 05:00:00 14.9 12 Sudeste 26 Sudeste 0 -- -- 40
2020-03-20 04:00:00 15 9 Sudeste 35 Sudeste 0 -- -- 41
2020-03-20 03:00:00 15.4 18 Sur 35 Sudeste 0 -- -- 46
2020-03-20 02:00:00 13.9 9 Este 16 Este 0 -- -- 60
2020-03-20 01:00:00 13.9 8 Sudeste 29 Sudeste 0 -- -- 58
2020-03-20 00:00:00 14.1 4 Sur 12 Sudeste 0 -- -- 53
2020-03-19 23:00:00 14.3 7 Sudeste 14 Sur 0 -- -- 51
2020-03-19 22:00:00 14.7 5 Sudeste 12 Sudeste 0 -- -- 51
2020-03-19 21:00:00 14.9 6 Sudeste 14 Este 0 -- -- 59
2020-03-19 20:00:00 14.7 4 Sudeste 11 Sudeste 0 -- -- 72
2020-03-19 19:00:00 13.6 2 Este 12 Oeste 0 -- -- 87
2020-03-19 18:00:00 14.6 4 Sur 22 Sudeste 0 -- -- 88
2020-03-19 17:00:00 12.7 15 Sudeste 26 Sudeste 0 -- -- 95
2020-03-19 16:00:00 12.7 18 Sudeste 29 Sudeste 0 -- -- 93
2020-03-19 15:00:00 12.8 20 Sudeste 27 Este 0 -- -- 92
2020-03-19 14:00:00 12.5 17 Sudeste 26 Sudeste 0 -- -- 95
2020-03-19 13:00:00 12.5 14 Sudeste 18 Sudeste 0 -- -- 99
2020-03-19 12:00:00 12 9 Sudeste 17 Sudeste 0 -- -- 99
2020-03-19 11:00:00 11.7 11 Sudeste 17 Sudeste 0 -- -- 99
2020-03-19 10:00:00 10.7 8 Sudeste 12 Sur 0 -- -- 100
2020-03-19 09:00:00 10.4 6 Sudeste 11 Sudeste 0 -- -- 100
2020-03-19 08:00:00 10.3 8 Sudoeste 14 Oeste 0 -- -- 100
2020-03-19 07:00:00 10.3 4 Sudoeste 18 Oeste 0 -- -- 100
2020-03-19 06:00:00 10.5 12 Oeste 17 Oeste 0 -- -- 100
2020-03-19 05:00:00 10.6 5 Oeste 12 Oeste 0 -- -- 99
2020-03-19 04:00:00 10.9 7 Oeste 17 Oeste 0 -- -- 99
2020-03-19 03:00:00 11 13 Oeste 17 Oeste 0 -- -- 98
2020-03-19 02:00:00 10.8 4 Sudeste 9 Sudeste 0 -- -- 98
2020-03-19 01:00:00 11.1 4 Oeste 5 Oeste 0 -- -- 97
2020-03-19 00:00:00 11.2 2 Sudoeste 8 Oeste 0 -- -- 97
2020-03-18 23:00:00 11.3 7 Sudoeste 13 Sudoeste 0 -- -- 97
2020-03-18 22:00:00 11.5 12 Sudoeste 18 Sudoeste 0 -- -- 97
2020-03-18 21:00:00 11.7 11 Sudoeste 15 Sudoeste 0 -- -- 96
2020-03-18 20:00:00 11.8 4 Sudoeste 8 Sudoeste 0 -- -- 93
2020-03-18 19:00:00 13.2 4 Sudeste 14 Sudeste 0 -- -- 84
2020-03-18 18:00:00 13.6 6 Sudeste 20 Sudeste 0 -- -- 87
2020-03-18 17:00:00 13.9 14 Sudeste 21 Este 0 -- -- 87
2020-03-18 16:00:00 15.3 14 Este 19 Este 0 -- -- 76
2020-03-18 15:00:00 15.4 13 Este 17 Este 0 -- -- 72
2020-03-18 14:00:00 15.8 5 Este 8 Este 0 -- -- 74
2020-03-18 13:00:00 15.8 6 Sudeste 10 Sudeste 0 -- -- 77
2020-03-18 12:00:00 15.5 6 Sudeste 12 Sudeste 0 -- -- 81
2020-03-18 11:00:00 14.1 7 Sudeste 13 Sudeste 0 -- -- 82
2020-03-18 10:00:00 13.6 5 Sudeste 8 Este 0 -- -- 84
2020-03-18 09:00:00 13 2 Noroeste 5 Oeste 0 -- -- 81
2020-03-18 08:00:00 12 2 Sudeste 9 Sudeste 0 -- -- 83
2020-03-18 07:00:00 12.1 6 Sur 16 Sudeste 0 -- -- 83
2020-03-18 06:00:00 10.9 10 Sudeste 17 Sudeste 0 -- -- 90
2020-03-18 05:00:00 10.4 10 Sudeste 14 Sudeste 0 -- -- 93
2020-03-18 04:00:00 10.2 8 Sudeste 20 Sudeste 0 -- -- 97
2020-03-18 03:00:00 10.1 13 Sudeste 24 Este 0 -- -- 95
2020-03-18 02:00:00 10.5 16 Este 24 Sudeste 0 -- -- 95
2020-03-18 01:00:00 10.8 17 Este 24 Este 0 -- -- 94
2020-03-18 00:00:00 10.8 15 Este 22 Este 0 -- -- 93
2020-03-17 23:00:00 10.9 14 Sudeste 22 Este 0 -- -- 93
2020-03-17 22:00:00 11 15 Sudeste 27 Este 0 -- -- 95
2020-03-17 21:00:00 11.1 14 Sudeste 23 Este 0 -- -- 95
2020-03-17 20:00:00 11.2 18 Este 24 Este 0 -- -- 93
2020-03-17 19:00:00 11.6 18 Este 23 Este 0 -- -- 93
2020-03-17 18:00:00 12.2 16 Este 21 Este 0 -- -- 92
2020-03-17 17:00:00 12.5 12 Este 14 Nordeste 0 -- -- 88
2020-03-17 16:00:00 12.8 10 Este 12 Este 0 -- -- 88
2020-03-17 15:00:00 13 9 Este 14 Este 0 -- -- 88
2020-03-17 14:00:00 12.7 10 Este 14 Este 0 -- -- 88
2020-03-17 13:00:00 12.8 10 Este 15 Este 0 -- -- 87
2020-03-17 12:00:00 12.5 10 Este 13 Este 0 -- -- 89
2020-03-17 11:00:00 12 8 Nordeste 12 Este 0 -- -- 91
2020-03-17 10:00:00 11.5 9 Nordeste 12 Nordeste 0 -- -- 93
2020-03-17 09:00:00 11.3 9 Nordeste 12 Nordeste 0 -- -- 93
2020-03-17 08:00:00 11.1 4 Norte 9 Noroeste 0 -- -- 93
2020-03-17 07:00:00 11 6 Norte 9 Norte 0 -- -- 93
2020-03-17 06:00:00 11 6 Nordeste 10 Nordeste 0 -- -- 93
2020-03-17 05:00:00 11 4 Norte 13 Norte 0 -- -- 92
2020-03-17 04:00:00 11.1 7 Norte 17 Norte 0 -- -- 92
2020-03-17 03:00:00 11.2 7 Noroeste 15 Nordeste 0 -- -- 93
2020-03-17 02:00:00 11.1 10 Noroeste 16 Noroeste 0 -- -- 91
2020-03-17 01:00:00 11.1 7 Noroeste 17 Noroeste 0 -- -- 91
2020-03-17 00:00:00 10.9 9 Noroeste 20 Noroeste 0 -- -- 91
2020-03-16 23:00:00 10.9 9 Norte 21 Noroeste 0 -- -- 89
2020-03-16 22:00:00 10.8 11 Norte 23 Noroeste 0 -- -- 86
2020-03-16 21:00:00 10.6 5 Norte 20 Nordeste 0 -- -- 87
2020-03-16 20:00:00 10.4 12 Norte 24 Norte 0 -- -- 87
2020-03-16 19:00:00 10.5 14 Norte 26 Norte 0 -- -- 87
2020-03-16 18:00:00 10.4 15 Norte 27 Norte 0 -- -- 84
2020-03-16 17:00:00 9.9 14 Norte 25 Norte 2 -- -- 97
2020-03-16 16:00:00 9.6 12 Noroeste 24 Noroeste 2.4 -- -- 98
2020-03-16 15:00:00 9.9 8 Noroeste 18 Noroeste 2.6 -- -- 96
2020-03-16 14:00:00 10.2 17 Nordeste 30 Noroeste 2.4 -- -- 96
2020-03-16 13:00:00 10.3 14 Noroeste 23 Noroeste 1.6 -- -- 94
2020-03-16 12:00:00 9.9 12 Noroeste 30 Norte 2.4 -- -- 93
2020-03-16 11:00:00 9.9 22 Noroeste 33 Noroeste 1.4 -- -- 89
2020-03-16 10:00:00 9.4 15 Noroeste 33 Noroeste 2 -- -- 88
2020-03-16 09:00:00 8.9 22 Noroeste 42 Noroeste 2.4 -- -- 92
2020-03-16 08:00:00 8.6 29 Noroeste 42 Oeste 2.4 -- -- 93
2020-03-16 07:00:00 8.4 39 Oeste 53 Oeste 3.8 -- -- 97
2020-03-16 06:00:00 8.3 42 Oeste 69 Oeste 4.2 -- -- 97
2020-03-16 05:00:00 8.6 47 Oeste 57 Oeste 1.8 -- -- 92
2020-03-16 04:00:00 8.2 49 Oeste 61 Oeste 2.4 -- -- 96
2020-03-16 03:00:00 8.8 46 Oeste 60 Oeste 2 -- -- 92
2020-03-16 02:00:00 8.6 46 Oeste 58 Oeste 0.4 -- -- 95
2020-03-16 01:00:00 8.9 44 Oeste 58 Noroeste 0.2 -- -- 87
2020-03-16 00:00:00 8.8 49 Noroeste 65 Noroeste 2.6 -- -- 93
2020-03-15 23:00:00 9.2 52 Oeste 79 Oeste 1 -- -- 96
2020-03-15 22:00:00 8.9 69 Oeste 97 Oeste 3 -- -- 99
2020-03-15 21:00:00 9.7 22 Sudoeste 51 Sudoeste 5.4 -- -- 96
2020-03-15 20:00:00 9.8 15 Sudoeste 32 Oeste 5.4 -- -- 94
2020-03-15 19:00:00 10.9 18 Oeste 33 Oeste 0.6 -- -- 87
2020-03-15 18:00:00 11.8 24 Oeste 30 Oeste 0 -- -- 87
2020-03-15 17:00:00 12.2 25 Oeste 32 Oeste 0 -- -- 85
2020-03-15 16:00:00 13 27 Oeste 41 Oeste 0 -- -- 82
2020-03-15 15:00:00 12.2 39 Oeste 48 Oeste 0 -- -- 83
2020-03-15 14:00:00 11.9 42 Oeste 54 Oeste 0 -- -- 86
2020-03-15 13:00:00 12 42 Oeste 54 Oeste 0 -- -- 88
2020-03-15 12:00:00 11.7 36 Oeste 53 Oeste 0 -- -- 89
2020-03-15 11:00:00 11.8 28 Oeste 49 Oeste 0 -- -- 85
2020-03-15 10:00:00 16.1 26 Sudoeste 56 Sur 0 -- -- 61
2020-03-15 09:00:00 17.2 34 Sur 57 Sur 0 -- -- 33
2020-03-15 08:00:00 16.1 27 Sur 43 Sur 0 -- -- 35
2020-03-15 07:00:00 8.3 8 Este 22 Sudeste 0 -- -- 74
2020-03-15 06:00:00 10.5 14 Sudeste 23 Este 0 -- -- 56
2020-03-15 05:00:00 9.6 14 Sudeste 22 Sudeste 0 -- -- 67
2020-03-15 04:00:00 9.8 10 Sudeste 19 Sudeste 0 -- -- 69
2020-03-15 03:00:00 9.9 15 Sudeste 24 Sudeste 0 -- -- 70
2020-03-15 02:00:00 9.9 17 Sudeste 27 Sudeste 0 -- -- 69
2020-03-15 01:00:00 9.7 15 Sudeste 28 Sudeste 0 -- -- 71
2020-03-15 00:00:00 9.8 17 Sudeste 25 Sudeste 0 -- -- 69
2020-03-14 23:00:00 9.9 16 Sudeste 26 Sudeste 0 -- -- 73
2020-03-14 22:00:00 10 14 Sudeste 23 Sudeste 0 -- -- 74
2020-03-14 21:00:00 10.1 15 Sudeste 23 Sudeste 0 -- -- 72
2020-03-14 20:00:00 10.1 12 Sudeste 26 Sudeste 0 -- -- 73
2020-03-14 19:00:00 10.6 18 Este 28 Este 0 -- -- 74
2020-03-14 18:00:00 11.6 15 Este 23 Este 0 -- -- 70
2020-03-14 17:00:00 12.5 14 Este 20 Este 0 -- -- 67
2020-03-14 16:00:00 13 14 Este 18 Este 0 -- -- 66
2020-03-14 15:00:00 12.9 10 Este 15 Este 0 -- -- 64
2020-03-14 14:00:00 13 10 Este 17 Este 0 -- -- 61
2020-03-14 13:00:00 12.6 7 Nordeste 10 Nordeste 0 -- -- 64
2020-03-14 12:00:00 12.4 5 Norte 10 Nordeste 0 -- -- 66
2020-03-14 11:00:00 12 5 Oeste 8 Oeste 0 -- -- 69
2020-03-14 10:00:00 11.3 2 Noroeste 5 Noroeste 0 -- -- 70
2020-03-14 09:00:00 10 0 Calma 4 Oeste 0 -- -- 75
2020-03-14 08:00:00 8.1 0 Calma 4 Sur 0 -- -- 78
2020-03-14 07:00:00 7 0 Calma 4 Sudoeste 0 -- -- 74
2020-03-14 06:00:00 6.9 2 Sudoeste 5 Oeste 0 -- -- 75
2020-03-14 05:00:00 7.6 0 Calma 4 Oeste 0 -- -- 83
2020-03-14 04:00:00 7.4 3 Oeste 4 Oeste 0 -- -- 77
2020-03-14 03:00:00 7.4 0 Calma 2 Noroeste 0 -- -- 85
2020-03-14 02:00:00 7.5 2 Sur 4 Sur 0 -- -- 77
2020-03-14 01:00:00 7.3 3 Sudeste 8 Sudeste 0 -- -- 76
2020-03-14 00:00:00 7.7 5 Sudeste 8 Sudeste 0 -- -- 75
2020-03-13 23:00:00 7.6 4 Sudeste 9 Sudeste 0 -- -- 76
2020-03-13 22:00:00 7.6 6 Sudeste 12 Este 0 -- -- 77
2020-03-13 21:00:00 7.6 5 Este 11 Sudeste 0 -- -- 75
2020-03-13 20:00:00 8.2 7 Sudeste 13 Este 0 -- -- 73
2020-03-13 19:00:00 8.9 6 Este 10 Este 0 -- -- 72
2020-03-13 18:00:00 10.6 9 Nordeste 12 Nordeste 0 -- -- 67
2020-03-13 17:00:00 11.1 10 Nordeste 17 Este 0 -- -- 65
2020-03-13 16:00:00 11.7 13 Este 21 Este 0 -- -- 66
2020-03-13 15:00:00 12.2 17 Este 28 Este 0 -- -- 67
2020-03-13 14:00:00 12.2 21 Este 33 Este 0 -- -- 65
2020-03-13 13:00:00 12.1 25 Este 35 Este 0 -- -- 68
2020-03-13 12:00:00 11.4 26 Este 34 Este 0 -- -- 67
2020-03-13 11:00:00 11 27 Este 36 Este 0 -- -- 71
2020-03-13 10:00:00 10.3 29 Este 38 Este 0 -- -- 82
2020-03-13 09:00:00 10.1 27 Este 35 Este 0 -- -- 81
2020-03-13 08:00:00 10.3 28 Este 33 Este 0 -- -- 81
2020-03-13 07:00:00 10.3 22 Nordeste 31 Este 0 -- -- 79
2020-03-13 06:00:00 10.6 24 Nordeste 30 Nordeste 0 -- -- 82
2020-03-13 05:00:00 10.7 20 Nordeste 26 Nordeste 0 -- -- 84
2020-03-13 04:00:00 10.8 16 Nordeste 21 Nordeste 0 -- -- 82
2020-03-13 03:00:00 10.6 11 Nordeste 23 Nordeste 0 -- -- 84
2020-03-13 02:00:00 10.8 16 Nordeste 24 Nordeste 0 -- -- 82
2020-03-13 01:00:00 10.8 19 Nordeste 28 Nordeste 0 -- -- 87
2020-03-13 00:00:00 11 16 Nordeste 22 Nordeste 0 -- -- 88
2020-03-12 23:00:00 10.2 10 Este 22 Nordeste 0.6 -- -- 97
2020-03-12 22:00:00 10.5 14 Nordeste 26 Nordeste 0.2 -- -- 96
2020-03-12 21:00:00 11 7 Nordeste 20 Nordeste 0.2 -- -- 96
2020-03-12 20:00:00 11.5 6 Noroeste 13 Noroeste 0.2 -- -- 97
2020-03-12 19:00:00 11 4 Noroeste 18 Norte 0.2 -- -- 97
2020-03-12 18:00:00 11.1 10 Noroeste 21 Noroeste 0.2 -- -- 96
2020-03-12 17:00:00 12.4 10 Oeste 14 Oeste 0 -- -- 93
2020-03-12 16:00:00 13.5 4 Noroeste 6 Noroeste 0 -- -- 82
2020-03-12 15:00:00 13.7 2 Este 6 Nordeste 0 -- -- 83
2020-03-12 14:00:00 14.2 3 Este 7 Este 0 -- -- 81
2020-03-12 13:00:00 13.9 2 Este 4 Este 0 -- -- 85
2020-03-12 12:00:00 13.5 2 Nordeste 3 Nordeste 0 -- -- 86
2020-03-12 11:00:00 13 2 Noroeste 3 Sudeste 0 -- -- 88
2020-03-12 10:00:00 12.4 0 Calma 2 Nordeste 0 -- -- 93
2020-03-12 09:00:00 12 0 Calma 6 Sudoeste 0 -- -- 95
2020-03-12 08:00:00 11.5 6 Sudoeste 7 Sudoeste 0 -- -- 96
2020-03-12 07:00:00 11.3 4 Sudeste 8 Sur 0 -- -- 96
2020-03-12 06:00:00 11.3 0 Calma 14 Sudoeste 0 -- -- 97
2020-03-12 05:00:00 11.4 7 Oeste 13 Oeste 0 -- -- 97
2020-03-12 04:00:00 11.4 9 Oeste 14 Oeste 0 -- -- 96
2020-03-12 03:00:00 11.4 11 Oeste 19 Oeste 0 -- -- 96
2020-03-12 02:00:00 11.3 14 Oeste 22 Oeste 0 -- -- 96
2020-03-12 01:00:00 11.2 13 Oeste 22 Oeste 0 -- -- 97
2020-03-12 00:00:00 10.5 8 Oeste 19 Oeste 0 -- -- 97
2020-03-11 23:00:00 10.9 14 Oeste 18 Oeste 0 -- -- 97
2020-03-11 22:00:00 10.9 5 Sudoeste 13 Oeste 0 -- -- 96
2020-03-11 21:00:00 10.8 4 Oeste 9 Sudeste 0 -- -- 95
2020-03-11 20:00:00 11.3 7 Sudeste 22 Este 0 -- -- 94
2020-03-11 19:00:00 11.6 17 Este 30 Este 0 -- -- 92
2020-03-11 18:00:00 12.5 22 Este 33 Este 0 -- -- 88
2020-03-11 17:00:00 13.1 23 Este 36 Este 0 -- -- 84
2020-03-11 16:00:00 13.5 25 Este 34 Este 0 -- -- 80
2020-03-11 15:00:00 13.7 25 Este 34 Este 0 -- -- 81
2020-03-11 14:00:00 13.7 24 Este 32 Este 0 -- -- 79
2020-03-11 13:00:00 14.1 22 Este 31 Este 0 -- -- 78
2020-03-11 12:00:00 14.1 19 Este 27 Este 0 -- -- 78
2020-03-11 11:00:00 14.3 15 Este 22 Sudeste 0 -- -- 74
2020-03-11 10:00:00 14.3 13 Este 18 Sudeste 0 -- -- 74
2020-03-11 09:00:00 13.6 9 Este 13 Este 0 -- -- 77
2020-03-11 08:00:00 11.2 6 Sudeste 9 Sudeste 0 -- -- 87
2020-03-11 07:00:00 10.7 6 Sudeste 12 Sudeste 0 -- -- 86
2020-03-11 06:00:00 10.6 7 Sudeste 10 Sudeste 0 -- -- 86
2020-03-11 05:00:00 10.5 7 Sudeste 10 Sudeste 0 -- -- 86
2020-03-11 04:00:00 10.5 7 Sudeste 9 Sudeste 0 -- -- 86
2020-03-11 03:00:00 10.5 7 Sur 8 Sudeste 0 -- -- 86
2020-03-11 02:00:00 10.3 0 Calma 8 Sudeste 0 -- -- 88
2020-03-11 01:00:00 10.1 4 Sudoeste 5 Sur 0 -- -- 87
2020-03-11 00:00:00 10.2 0 Calma 5 Oeste 0 -- -- 86
2020-03-10 23:00:00 10.3 3 Sudoeste 8 Oeste 0 -- -- 86
2020-03-10 22:00:00 10.5 4 Oeste 5 Sudoeste 0 -- -- 86
2020-03-10 21:00:00 10.3 4 Sudoeste 7 Sudoeste 0 -- -- 83
2020-03-10 20:00:00 10.4 5 Sudoeste 8 Sudeste 0 -- -- 83
2020-03-10 19:00:00 11.6 4 Sur 14 Oeste 0 -- -- 79
2020-03-10 18:00:00 13.1 9 Oeste 17 Oeste 0 -- -- 75
2020-03-10 17:00:00 13.1 13 Oeste 18 Oeste 0 -- -- 79
2020-03-10 16:00:00 13 12 Oeste 19 Oeste 0 -- -- 77
2020-03-10 15:00:00 13.6 13 Oeste 19 Oeste 0 -- -- 76
2020-03-10 14:00:00 13.6 13 Oeste 21 Oeste 0 -- -- 76
2020-03-10 13:00:00 13.3 13 Oeste 18 Oeste 0 -- -- 74
2020-03-10 12:00:00 13.5 5 Oeste 6 Oeste 0 -- -- 71
2020-03-10 11:00:00 13.4 3 Nordeste 8 Sudoeste 0 -- -- 69
2020-03-10 10:00:00 12 3 Oeste 6 Sudeste 0 -- -- 79
2020-03-10 09:00:00 10.9 0 Calma 9 Sudoeste 0 -- -- 83
2020-03-10 08:00:00 9.3 3 Sudoeste 9 Oeste 0 -- -- 84
2020-03-10 07:00:00 9.9 6 Oeste 12 Sudoeste 0 -- -- 82
2020-03-10 06:00:00 10.4 6 Oeste 19 Oeste 0 -- -- 80
2020-03-10 05:00:00 10.8 7 Oeste 21 Oeste 0 -- -- 78
2020-03-10 04:00:00 10.8 10 Oeste 20 Oeste 0 -- -- 78
2020-03-10 03:00:00 10.8 11 Oeste 21 Sudoeste 0 -- -- 79
2020-03-10 02:00:00 10.8 12 Oeste 24 Sudoeste 0 -- -- 78
2020-03-10 01:00:00 10.7 9 Oeste 26 Oeste 0 -- -- 80
2020-03-10 00:00:00 10.5 10 Oeste 26 Sudoeste 0 -- -- 82